Maple Lake, Minnesota
Current Conditions -  °F | °C
As of 2:35 PM on Saturday 25 Oct 2014 (Local Time) from KMGG Reporting Station
Clear Clear  
Wind Chill: 62°   Ceiling: Unl
Heat Index: 62°   Visibility: 10mi
Dew Point: 31°   Wind: 15mph
Humidity: 31%   Direction: 300°WNW
Pressure: 30.06"   Gusts: 22mph
Location:  45.23°N, 94°W
Report Text: KMGG 251935Z AUTO 30013G19KT 10SM CLR 17/00 A3006 RMK AO2 T01681005
Loading
Personal Weather Stations






























Interactive Weather Map
Tropical Storm Tracking
New forecast layout! Learn more

10-Day Weather Forecast

Advertisements
Track Severe Weather on mobile